sensor_id;sensor_type;location;lat;lon;timestamp;P1;durP1;ratioP1;P2;durP2;ratioP2
73823;SDS011;62154;54.914;73.444;2022-10-16T00:01:26;8.25;;;4.82;;
73823;SDS011;62154;54.914;73.444;2022-10-16T00:03:55;10.35;;;5.57;;
73823;SDS011;62154;54.914;73.444;2022-10-16T00:06:23;8.98;;;5.65;;
73823;SDS011;62154;54.914;73.444;2022-10-16T00:09:00;10.20;;;4.80;;
73823;SDS011;62154;54.914;73.444;2022-10-16T00:11:29;10.40;;;4.72;;
73823;SDS011;62154;54.914;73.444;2022-10-16T00:14:00;14.18;;;4.97;;
73823;SDS011;62154;54.914;73.444;2022-10-16T00:16:28;10.18;;;4.93;;
73823;SDS011;62154;54.914;73.444;2022-10-16T00:18:55;9.38;;;4.90;;
73823;SDS011;62154;54.914;73.444;2022-10-16T00:21:23;10.32;;;5.18;;
73823;SDS011;62154;54.914;73.444;2022-10-16T00:23:53;8.82;;;4.72;;
73823;SDS011;62154;54.914;73.444;2022-10-16T00:26:21;11.00;;;4.43;;
73823;SDS011;62154;54.914;73.444;2022-10-16T00:28:49;12.35;;;5.28;;
73823;SDS011;62154;54.914;73.444;2022-10-16T00:31:21;15.90;;;5.38;;
73823;SDS011;62154;54.914;73.444;2022-10-16T00:33:48;13.13;;;5.78;;
73823;SDS011;62154;54.914;73.444;2022-10-16T00:36:18;9.98;;;5.35;;
73823;SDS011;62154;54.914;73.444;2022-10-16T00:38:47;11.45;;;5.55;;
73823;SDS011;62154;54.914;73.444;2022-10-16T00:41:19;9.90;;;5.38;;
73823;SDS011;62154;54.914;73.444;2022-10-16T00:43:47;8.63;;;5.18;;
73823;SDS011;62154;54.914;73.444;2022-10-16T00:46:23;10.00;;;4.90;;
73823;SDS011;62154;54.914;73.444;2022-10-16T00:49:10;15.27;;;5.70;;
73823;SDS011;62154;54.914;73.444;2022-10-16T00:51:39;13.30;;;5.50;;
73823;SDS011;62154;54.914;73.444;2022-10-16T00:54:27;11.63;;;5.38;;
73823;SDS011;62154;54.914;73.444;2022-10-16T00:57:01;13.10;;;4.90;;
73823;SDS011;62154;54.914;73.444;2022-10-16T00:59:33;10.65;;;5.00;;
73823;SDS011;62154;54.914;73.444;2022-10-16T01:02:03;8.73;;;4.90;;
73823;SDS011;62154;54.914;73.444;2022-10-16T01:04:43;9.98;;;4.90;;
73823;SDS011;62154;54.914;73.444;2022-10-16T01:15:08;10.43;;;4.30;;
73823;SDS011;62154;54.914;73.444;2022-10-16T01:17:53;9.27;;;4.18;;
73823;SDS011;62154;54.914;73.444;2022-10-16T01:21:22;11.38;;;4.63;;
73823;SDS011;62154;54.914;73.444;2022-10-16T01:29:53;21.65;;;17.02;;
73823;SDS011;62154;54.914;73.444;2022-10-16T01:35:14;13.27;;;6.32;;
73823;SDS011;62154;54.914;73.444;2022-10-16T01:38:00;8.32;;;4.97;;
73823;SDS011;62154;54.914;73.444;2022-10-16T01:40:32;9.77;;;5.68;;
73823;SDS011;62154;54.914;73.444;2022-10-16T01:43:03;13.73;;;7.38;;
73823;SDS011;62154;54.914;73.444;2022-10-16T01:45:34;12.40;;;7.95;;
73823;SDS011;62154;54.914;73.444;2022-10-16T01:48:02;19.42;;;7.90;;
73823;SDS011;62154;54.914;73.444;2022-10-16T01:50:34;21.52;;;9.23;;
73823;SDS011;62154;54.914;73.444;2022-10-16T01:53:06;17.20;;;8.68;;
73823;SDS011;62154;54.914;73.444;2022-10-16T01:55:37;18.48;;;8.90;;
73823;SDS011;62154;54.914;73.444;2022-10-16T01:58:12;20.00;;;9.25;;
73823;SDS011;62154;54.914;73.444;2022-10-16T02:00:41;19.23;;;9.75;;
73823;SDS011;62154;54.914;73.444;2022-10-16T02:03:11;19.52;;;9.43;;
73823;SDS011;62154;54.914;73.444;2022-10-16T02:05:52;18.63;;;10.30;;
73823;SDS011;62154;54.914;73.444;2022-10-16T02:08:29;19.30;;;9.65;;
73823;SDS011;62154;54.914;73.444;2022-10-16T02:10:57;23.35;;;9.95;;
73823;SDS011;62154;54.914;73.444;2022-10-16T02:16:18;16.27;;;8.90;;
73823;SDS011;62154;54.914;73.444;2022-10-16T02:18:50;21.48;;;8.70;;
73823;SDS011;62154;54.914;73.444;2022-10-16T02:21:37;19.65;;;9.18;;
73823;SDS011;62154;54.914;73.444;2022-10-16T02:24:29;19.02;;;9.20;;
73823;SDS011;62154;54.914;73.444;2022-10-16T02:29:40;16.63;;;9.65;;
73823;SDS011;62154;54.914;73.444;2022-10-16T02:32:12;16.95;;;9.13;;
73823;SDS011;62154;54.914;73.444;2022-10-16T02:34:42;21.08;;;8.93;;
73823;SDS011;62154;54.914;73.444;2022-10-16T02:37:12;20.75;;;9.10;;
73823;SDS011;62154;54.914;73.444;2022-10-16T02:39:40;13.70;;;8.27;;
73823;SDS011;62154;54.914;73.444;2022-10-16T02:42:14;14.30;;;8.65;;
73823;SDS011;62154;54.914;73.444;2022-10-16T02:44:53;18.08;;;8.57;;
73823;SDS011;62154;54.914;73.444;2022-10-16T02:47:20;14.38;;;8.20;;
73823;SDS011;62154;54.914;73.444;2022-10-16T02:49:47;14.57;;;8.45;;
73823;SDS011;62154;54.914;73.444;2022-10-16T02:52:14;16.88;;;8.82;;
73823;SDS011;62154;54.914;73.444;2022-10-16T02:54:41;14.80;;;8.05;;
73823;SDS011;62154;54.914;73.444;2022-10-16T02:57:08;16.33;;;8.35;;
73823;SDS011;62154;54.914;73.444;2022-10-16T02:59:35;14.02;;;8.77;;
73823;SDS011;62154;54.914;73.444;2022-10-16T03:02:02;18.90;;;8.00;;
73823;SDS011;62154;54.914;73.444;2022-10-16T03:04:29;14.05;;;8.23;;
73823;SDS011;62154;54.914;73.444;2022-10-16T03:06:57;15.23;;;7.95;;
73823;SDS011;62154;54.914;73.444;2022-10-16T03:09:24;14.88;;;7.82;;
73823;SDS011;62154;54.914;73.444;2022-10-16T03:11:50;14.38;;;9.15;;
73823;SDS011;62154;54.914;73.444;2022-10-16T03:14:18;17.48;;;8.68;;
73823;SDS011;62154;54.914;73.444;2022-10-16T03:16:45;15.23;;;8.60;;
73823;SDS011;62154;54.914;73.444;2022-10-16T03:19:12;22.25;;;8.38;;
73823;SDS011;62154;54.914;73.444;2022-10-16T03:21:39;14.40;;;7.97;;
73823;SDS011;62154;54.914;73.444;2022-10-16T03:24:06;16.77;;;8.10;;
73823;SDS011;62154;54.914;73.444;2022-10-16T03:26:33;13.05;;;7.75;;
73823;SDS011;62154;54.914;73.444;2022-10-16T03:28:59;13.90;;;7.70;;
73823;SDS011;62154;54.914;73.444;2022-10-16T03:31:29;13.32;;;7.60;;
73823;SDS011;62154;54.914;73.444;2022-10-16T03:33:56;15.70;;;7.32;;
73823;SDS011;62154;54.914;73.444;2022-10-16T03:36:23;14.40;;;7.03;;
73823;SDS011;62154;54.914;73.444;2022-10-16T03:38:50;15.43;;;6.93;;
73823;SDS011;62154;54.914;73.444;2022-10-16T03:41:17;15.07;;;7.47;;
73823;SDS011;62154;54.914;73.444;2022-10-16T03:43:44;12.35;;;6.72;;
73823;SDS011;62154;54.914;73.444;2022-10-16T03:46:11;10.45;;;6.30;;
73823;SDS011;62154;54.914;73.444;2022-10-16T03:48:38;13.43;;;5.90;;
73823;SDS011;62154;54.914;73.444;2022-10-16T03:51:06;10.90;;;6.00;;
73823;SDS011;62154;54.914;73.444;2022-10-16T03:53:33;8.40;;;5.65;;
73823;SDS011;62154;54.914;73.444;2022-10-16T03:56:00;9.85;;;5.90;;
73823;SDS011;62154;54.914;73.444;2022-10-16T03:58:27;10.65;;;5.10;;
73823;SDS011;62154;54.914;73.444;2022-10-16T04:00:54;13.07;;;5.05;;
73823;SDS011;62154;54.914;73.444;2022-10-16T04:03:21;13.90;;;5.00;;
73823;SDS011;62154;54.914;73.444;2022-10-16T04:05:49;12.27;;;5.22;;
73823;SDS011;62154;54.914;73.444;2022-10-16T04:08:16;14.00;;;5.80;;
73823;SDS011;62154;54.914;73.444;2022-10-16T04:10:44;8.85;;;4.60;;
73823;SDS011;62154;54.914;73.444;2022-10-16T04:13:11;11.95;;;5.47;;
73823;SDS011;62154;54.914;73.444;2022-10-16T04:15:39;11.77;;;4.95;;
73823;SDS011;62154;54.914;73.444;2022-10-16T04:18:06;13.30;;;4.57;;
73823;SDS011;62154;54.914;73.444;2022-10-16T04:20:33;11.55;;;5.72;;
73823;SDS011;62154;54.914;73.444;2022-10-16T04:23:00;8.10;;;4.22;;
73823;SDS011;62154;54.914;73.444;2022-10-16T04:25:28;11.15;;;5.35;;
73823;SDS011;62154;54.914;73.444;2022-10-16T04:27:54;8.80;;;4.60;;
73823;SDS011;62154;54.914;73.444;2022-10-16T04:30:22;11.13;;;5.22;;
73823;SDS011;62154;54.914;73.444;2022-10-16T04:32:50;11.63;;;4.10;;
73823;SDS011;62154;54.914;73.444;2022-10-16T04:35:17;7.05;;;3.80;;
73823;SDS011;62154;54.914;73.444;2022-10-16T04:37:46;7.57;;;4.15;;
73823;SDS011;62154;54.914;73.444;2022-10-16T04:40:13;13.90;;;4.60;;
73823;SDS011;62154;54.914;73.444;2022-10-16T04:42:46;11.88;;;4.13;;
73823;SDS011;62154;54.914;73.444;2022-10-16T04:45:18;10.52;;;4.97;;
73823;SDS011;62154;54.914;73.444;2022-10-16T04:47:45;11.10;;;3.80;;
73823;SDS011;62154;54.914;73.444;2022-10-16T04:50:12;10.27;;;4.63;;
73823;SDS011;62154;54.914;73.444;2022-10-16T04:52:39;9.18;;;4.30;;
73823;SDS011;62154;54.914;73.444;2022-10-16T04:55:06;8.40;;;3.83;;
73823;SDS011;62154;54.914;73.444;2022-10-16T04:57:36;9.13;;;4.30;;
73823;SDS011;62154;54.914;73.444;2022-10-16T05:00:08;10.60;;;4.85;;
73823;SDS011;62154;54.914;73.444;2022-10-16T05:02:35;13.20;;;5.40;;
73823;SDS011;62154;54.914;73.444;2022-10-16T05:05:14;12.38;;;5.30;;
73823;SDS011;62154;54.914;73.444;2022-10-16T05:07:41;10.18;;;5.47;;
73823;SDS011;62154;54.914;73.444;2022-10-16T05:10:08;14.48;;;5.93;;
73823;SDS011;62154;54.914;73.444;2022-10-16T05:12:35;12.82;;;6.45;;
73823;SDS011;62154;54.914;73.444;2022-10-16T05:15:03;13.70;;;6.40;;
73823;SDS011;62154;54.914;73.444;2022-10-16T05:17:30;13.15;;;6.78;;
73823;SDS011;62154;54.914;73.444;2022-10-16T05:19:57;14.27;;;6.85;;
73823;SDS011;62154;54.914;73.444;2022-10-16T05:22:24;11.75;;;7.07;;
73823;SDS011;62154;54.914;73.444;2022-10-16T05:24:56;11.85;;;6.88;;
73823;SDS011;62154;54.914;73.444;2022-10-16T05:27:23;14.70;;;6.03;;
73823;SDS011;62154;54.914;73.444;2022-10-16T05:29:50;13.25;;;6.40;;
73823;SDS011;62154;54.914;73.444;2022-10-16T05:32:17;12.23;;;6.03;;
73823;SDS011;62154;54.914;73.444;2022-10-16T05:34:45;15.68;;;6.63;;
73823;SDS011;62154;54.914;73.444;2022-10-16T05:37:12;27.08;;;7.90;;
73823;SDS011;62154;54.914;73.444;2022-10-16T05:39:39;16.92;;;6.25;;
73823;SDS011;62154;54.914;73.444;2022-10-16T05:42:06;16.35;;;6.50;;
73823;SDS011;62154;54.914;73.444;2022-10-16T05:44:33;12.25;;;6.70;;
73823;SDS011;62154;54.914;73.444;2022-10-16T05:47:00;12.77;;;6.13;;
73823;SDS011;62154;54.914;73.444;2022-10-16T05:49:29;13.27;;;7.35;;
73823;SDS011;62154;54.914;73.444;2022-10-16T05:51:56;17.85;;;7.43;;
73823;SDS011;62154;54.914;73.444;2022-10-16T05:54:23;12.45;;;7.65;;
73823;SDS011;62154;54.914;73.444;2022-10-16T05:56:50;16.92;;;7.63;;
73823;SDS011;62154;54.914;73.444;2022-10-16T05:59:17;14.57;;;6.60;;
73823;SDS011;62154;54.914;73.444;2022-10-16T06:01:44;13.40;;;6.28;;
73823;SDS011;62154;54.914;73.444;2022-10-16T06:04:11;21.63;;;5.68;;
73823;SDS011;62154;54.914;73.444;2022-10-16T06:06:38;13.38;;;6.50;;
73823;SDS011;62154;54.914;73.444;2022-10-16T06:09:05;16.38;;;6.32;;
73823;SDS011;62154;54.914;73.444;2022-10-16T06:11:34;19.85;;;5.93;;
73823;SDS011;62154;54.914;73.444;2022-10-16T06:14:02;11.23;;;5.30;;
73823;SDS011;62154;54.914;73.444;2022-10-16T06:16:33;12.50;;;5.60;;
73823;SDS011;62154;54.914;73.444;2022-10-16T06:19:13;10.05;;;5.80;;
73823;SDS011;62154;54.914;73.444;2022-10-16T06:21:42;9.85;;;5.20;;
73823;SDS011;62154;54.914;73.444;2022-10-16T06:24:09;12.60;;;5.50;;
73823;SDS011;62154;54.914;73.444;2022-10-16T06:26:36;12.15;;;4.80;;
73823;SDS011;62154;54.914;73.444;2022-10-16T06:29:04;9.95;;;5.38;;
73823;SDS011;62154;54.914;73.444;2022-10-16T06:31:31;16.67;;;5.00;;
73823;SDS011;62154;54.914;73.444;2022-10-16T06:33:59;15.63;;;5.35;;
73823;SDS011;62154;54.914;73.444;2022-10-16T06:36:26;19.00;;;5.88;;
73823;SDS011;62154;54.914;73.444;2022-10-16T06:38:54;15.93;;;6.30;;
73823;SDS011;62154;54.914;73.444;2022-10-16T06:41:24;15.32;;;7.15;;
73823;SDS011;62154;54.914;73.444;2022-10-16T06:43:51;18.35;;;6.03;;
73823;SDS011;62154;54.914;73.444;2022-10-16T06:46:19;17.98;;;5.25;;
73823;SDS011;62154;54.914;73.444;2022-10-16T06:48:48;18.05;;;5.85;;
73823;SDS011;62154;54.914;73.444;2022-10-16T06:51:16;12.40;;;4.65;;
73823;SDS011;62154;54.914;73.444;2022-10-16T06:53:46;8.10;;;4.60;;
73823;SDS011;62154;54.914;73.444;2022-10-16T06:58:46;19.17;;;7.03;;
73823;SDS011;62154;54.914;73.444;2022-10-16T07:01:21;7.88;;;4.63;;
73823;SDS011;62154;54.914;73.444;2022-10-16T07:03:51;15.38;;;5.05;;
73823;SDS011;62154;54.914;73.444;2022-10-16T07:06:20;16.40;;;4.70;;
73823;SDS011;62154;54.914;73.444;2022-10-16T07:08:48;12.02;;;4.32;;
73823;SDS011;62154;54.914;73.444;2022-10-16T07:11:17;14.52;;;5.40;;
73823;SDS011;62154;54.914;73.444;2022-10-16T07:13:48;12.05;;;5.38;;
73823;SDS011;62154;54.914;73.444;2022-10-16T07:16:17;12.73;;;5.22;;
73823;SDS011;62154;54.914;73.444;2022-10-16T07:18:46;14.10;;;5.60;;
73823;SDS011;62154;54.914;73.444;2022-10-16T07:21:16;14.73;;;9.85;;
73823;SDS011;62154;54.914;73.444;2022-10-16T07:23:51;9.38;;;5.45;;
73823;SDS011;62154;54.914;73.444;2022-10-16T07:26:19;18.20;;;6.57;;
73823;SDS011;62154;54.914;73.444;2022-10-16T07:28:46;13.43;;;6.18;;
73823;SDS011;62154;54.914;73.444;2022-10-16T07:31:19;22.92;;;6.88;;
73823;SDS011;62154;54.914;73.444;2022-10-16T07:33:47;13.57;;;6.65;;
73823;SDS011;62154;54.914;73.444;2022-10-16T07:36:16;10.55;;;6.03;;
73823;SDS011;62154;54.914;73.444;2022-10-16T07:38:44;14.57;;;6.57;;
73823;SDS011;62154;54.914;73.444;2022-10-16T07:41:13;9.05;;;5.75;;
73823;SDS011;62154;54.914;73.444;2022-10-16T07:43:45;16.63;;;6.70;;
73823;SDS011;62154;54.914;73.444;2022-10-16T07:46:13;15.90;;;6.68;;
73823;SDS011;62154;54.914;73.444;2022-10-16T07:48:40;17.75;;;6.05;;
73823;SDS011;62154;54.914;73.444;2022-10-16T07:51:11;17.05;;;6.65;;
73823;SDS011;62154;54.914;73.444;2022-10-16T07:53:40;13.68;;;6.45;;
73823;SDS011;62154;54.914;73.444;2022-10-16T07:56:07;12.30;;;6.82;;
73823;SDS011;62154;54.914;73.444;2022-10-16T07:58:34;19.98;;;8.40;;
73823;SDS011;62154;54.914;73.444;2022-10-16T08:01:04;17.92;;;8.50;;
73823;SDS011;62154;54.914;73.444;2022-10-16T08:03:33;19.75;;;11.48;;
73823;SDS011;62154;54.914;73.444;2022-10-16T08:06:01;13.55;;;8.10;;
73823;SDS011;62154;54.914;73.444;2022-10-16T08:08:36;14.60;;;8.38;;
73823;SDS011;62154;54.914;73.444;2022-10-16T08:11:03;14.38;;;8.35;;
73823;SDS011;62154;54.914;73.444;2022-10-16T08:13:30;21.13;;;8.20;;
73823;SDS011;62154;54.914;73.444;2022-10-16T08:16:01;21.90;;;10.57;;
73823;SDS011;62154;54.914;73.444;2022-10-16T08:18:34;39.90;;;22.30;;
73823;SDS011;62154;54.914;73.444;2022-10-16T08:21:02;22.25;;;10.90;;
73823;SDS011;62154;54.914;73.444;2022-10-16T08:23:30;15.98;;;8.70;;
73823;SDS011;62154;54.914;73.444;2022-10-16T08:26:01;16.48;;;8.52;;
73823;SDS011;62154;54.914;73.444;2022-10-16T08:28:30;14.35;;;8.35;;
73823;SDS011;62154;54.914;73.444;2022-10-16T08:31:04;16.08;;;7.43;;
73823;SDS011;62154;54.914;73.444;2022-10-16T08:33:36;22.77;;;7.45;;
73823;SDS011;62154;54.914;73.444;2022-10-16T08:36:04;18.50;;;7.30;;
73823;SDS011;62154;54.914;73.444;2022-10-16T08:38:32;14.00;;;6.07;;
73823;SDS011;62154;54.914;73.444;2022-10-16T08:44:06;11.98;;;5.93;;
73823;SDS011;62154;54.914;73.444;2022-10-16T08:47:13;12.90;;;5.30;;
73823;SDS011;62154;54.914;73.444;2022-10-16T08:52:30;11.18;;;5.55;;
73823;SDS011;62154;54.914;73.444;2022-10-16T08:55:02;17.77;;;6.28;;
73823;SDS011;62154;54.914;73.444;2022-10-16T08:57:31;11.65;;;5.97;;
73823;SDS011;62154;54.914;73.444;2022-10-16T09:00:12;10.65;;;5.57;;
73823;SDS011;62154;54.914;73.444;2022-10-16T09:02:53;16.15;;;6.63;;
73823;SDS011;62154;54.914;73.444;2022-10-16T09:05:46;29.67;;;11.73;;
73823;SDS011;62154;54.914;73.444;2022-10-16T09:11:30;12.68;;;6.85;;
73823;SDS011;62154;54.914;73.444;2022-10-16T09:22:42;18.60;;;9.50;;
73823;SDS011;62154;54.914;73.444;2022-10-16T09:25:12;22.27;;;11.38;;
73823;SDS011;62154;54.914;73.444;2022-10-16T09:27:42;36.95;;;17.38;;
73823;SDS011;62154;54.914;73.444;2022-10-16T09:30:18;62.40;;;27.85;;
73823;SDS011;62154;54.914;73.444;2022-10-16T09:32:50;40.38;;;19.20;;
73823;SDS011;62154;54.914;73.444;2022-10-16T09:35:31;43.75;;;22.85;;
73823;SDS011;62154;54.914;73.444;2022-10-16T09:38:01;99.32;;;47.25;;
73823;SDS011;62154;54.914;73.444;2022-10-16T09:43:23;40.97;;;18.63;;
73823;SDS011;62154;54.914;73.444;2022-10-16T09:46:06;67.90;;;30.67;;
73823;SDS011;62154;54.914;73.444;2022-10-16T09:48:54;51.20;;;21.38;;
73823;SDS011;62154;54.914;73.444;2022-10-16T09:51:27;41.40;;;14.57;;
73823;SDS011;62154;54.914;73.444;2022-10-16T09:54:23;40.15;;;16.30;;
73823;SDS011;62154;54.914;73.444;2022-10-16T09:56:49;50.63;;;21.63;;
73823;SDS011;62154;54.914;73.444;2022-10-16T09:59:19;28.60;;;13.32;;
73823;SDS011;62154;54.914;73.444;2022-10-16T10:01:51;31.15;;;16.13;;
73823;SDS011;62154;54.914;73.444;2022-10-16T10:04:24;33.58;;;15.73;;
73823;SDS011;62154;54.914;73.444;2022-10-16T10:06:54;55.83;;;29.75;;
73823;SDS011;62154;54.914;73.444;2022-10-16T10:09:24;26.05;;;13.70;;
73823;SDS011;62154;54.914;73.444;2022-10-16T10:11:59;38.90;;;19.92;;
73823;SDS011;62154;54.914;73.444;2022-10-16T10:14:32;20.52;;;10.85;;
73823;SDS011;62154;54.914;73.444;2022-10-16T10:17:27;26.02;;;13.80;;
73823;SDS011;62154;54.914;73.444;2022-10-16T10:19:56;21.48;;;8.15;;
73823;SDS011;62154;54.914;73.444;2022-10-16T10:22:43;25.27;;;9.27;;
73823;SDS011;62154;54.914;73.444;2022-10-16T10:27:50;23.08;;;10.40;;
73823;SDS011;62154;54.914;73.444;2022-10-16T10:55:37;45.72;;;22.33;;
73823;SDS011;62154;54.914;73.444;2022-10-16T11:06:20;69.95;;;34.80;;
73823;SDS011;62154;54.914;73.444;2022-10-16T11:11:54;43.30;;;19.23;;
73823;SDS011;62154;54.914;73.444;2022-10-16T11:17:50;39.17;;;19.80;;
73823;SDS011;62154;54.914;73.444;2022-10-16T11:20:14;41.42;;;21.48;;
73823;SDS011;62154;54.914;73.444;2022-10-16T11:22:50;86.80;;;40.92;;
73823;SDS011;62154;54.914;73.444;2022-10-16T11:25:32;72.95;;;35.38;;
73823;SDS011;62154;54.914;73.444;2022-10-16T11:28:08;75.20;;;37.13;;
73823;SDS011;62154;54.914;73.444;2022-10-16T11:30:41;114.70;;;67.40;;
73823;SDS011;62154;54.914;73.444;2022-10-16T11:33:30;97.15;;;52.80;;
73823;SDS011;62154;54.914;73.444;2022-10-16T11:36:06;85.97;;;45.47;;
73823;SDS011;62154;54.914;73.444;2022-10-16T11:50:01;48.13;;;25.77;;
73823;SDS011;62154;54.914;73.444;2022-10-16T11:52:46;44.30;;;20.65;;
73823;SDS011;62154;54.914;73.444;2022-10-16T11:55:36;37.00;;;19.23;;
73823;SDS011;62154;54.914;73.444;2022-10-16T11:58:27;37.22;;;19.80;;
73823;SDS011;62154;54.914;73.444;2022-10-16T12:03:44;30.52;;;14.15;;
73823;SDS011;62154;54.914;73.444;2022-10-16T12:08:52;32.13;;;17.80;;
73823;SDS011;62154;54.914;73.444;2022-10-16T12:14:59;55.55;;;28.42;;
73823;SDS011;62154;54.914;73.444;2022-10-16T12:16:58;72.15;;;35.60;;
73823;SDS011;62154;54.914;73.444;2022-10-16T12:19:29;220.07;;;110.22;;
73823;SDS011;62154;54.914;73.444;2022-10-16T12:21:58;214.38;;;106.28;;
73823;SDS011;62154;54.914;73.444;2022-10-16T12:24:37;107.40;;;53.13;;
73823;SDS011;62154;54.914;73.444;2022-10-16T12:27:28;191.30;;;92.82;;
73823;SDS011;62154;54.914;73.444;2022-10-16T12:29:58;245.05;;;111.65;;
73823;SDS011;62154;54.914;73.444;2022-10-16T12:32:36;206.55;;;100.53;;
73823;SDS011;62154;54.914;73.444;2022-10-16T12:35:06;25.38;;;12.65;;
73823;SDS011;62154;54.914;73.444;2022-10-16T12:37:46;23.27;;;13.25;;
73823;SDS011;62154;54.914;73.444;2022-10-16T12:42:43;25.40;;;12.48;;
73823;SDS011;62154;54.914;73.444;2022-10-16T12:48:28;27.48;;;16.65;;
73823;SDS011;62154;54.914;73.444;2022-10-16T12:50:54;17.95;;;9.50;;
73823;SDS011;62154;54.914;73.444;2022-10-16T12:53:31;10.35;;;6.60;;
73823;SDS011;62154;54.914;73.444;2022-10-16T13:01:53;17.27;;;8.70;;
73823;SDS011;62154;54.914;73.444;2022-10-16T13:12:54;44.05;;;22.35;;
73823;SDS011;62154;54.914;73.444;2022-10-16T13:18:22;40.35;;;21.63;;
73823;SDS011;62154;54.914;73.444;2022-10-16T13:26:31;48.13;;;25.70;;
73823;SDS011;62154;54.914;73.444;2022-10-16T13:29:00;39.45;;;21.65;;
73823;SDS011;62154;54.914;73.444;2022-10-16T13:31:28;45.53;;;21.05;;
73823;SDS011;62154;54.914;73.444;2022-10-16T13:33:59;40.60;;;21.27;;
73823;SDS011;62154;54.914;73.444;2022-10-16T13:36:29;34.65;;;19.02;;
73823;SDS011;62154;54.914;73.444;2022-10-16T13:39:02;38.50;;;18.58;;
73823;SDS011;62154;54.914;73.444;2022-10-16T13:41:37;36.22;;;18.00;;
73823;SDS011;62154;54.914;73.444;2022-10-16T13:44:12;29.30;;;15.55;;
73823;SDS011;62154;54.914;73.444;2022-10-16T13:46:57;29.60;;;16.65;;
73823;SDS011;62154;54.914;73.444;2022-10-16T13:49:28;27.40;;;15.15;;
73823;SDS011;62154;54.914;73.444;2022-10-16T13:51:56;26.80;;;15.80;;
73823;SDS011;62154;54.914;73.444;2022-10-16T13:54:24;32.40;;;16.85;;
73823;SDS011;62154;54.914;73.444;2022-10-16T13:56:52;44.72;;;22.52;;
73823;SDS011;62154;54.914;73.444;2022-10-16T13:59:24;44.60;;;22.92;;
73823;SDS011;62154;54.914;73.444;2022-10-16T14:01:59;45.35;;;22.15;;
73823;SDS011;62154;54.914;73.444;2022-10-16T14:04:35;40.15;;;19.27;;
73823;SDS011;62154;54.914;73.444;2022-10-16T14:07:05;29.33;;;15.48;;
73823;SDS011;62154;54.914;73.444;2022-10-16T14:09:50;28.63;;;14.70;;
73823;SDS011;62154;54.914;73.444;2022-10-16T14:12:19;24.88;;;12.25;;
73823;SDS011;62154;54.914;73.444;2022-10-16T14:14:47;20.73;;;10.90;;
73823;SDS011;62154;54.914;73.444;2022-10-16T14:17:25;17.70;;;10.68;;
73823;SDS011;62154;54.914;73.444;2022-10-16T14:19:58;16.80;;;10.10;;
73823;SDS011;62154;54.914;73.444;2022-10-16T14:25:21;14.40;;;9.32;;
73823;SDS011;62154;54.914;73.444;2022-10-16T14:30:57;17.65;;;9.73;;
73823;SDS011;62154;54.914;73.444;2022-10-16T14:38:40;22.92;;;13.27;;
73823;SDS011;62154;54.914;73.444;2022-10-16T14:41:14;26.02;;;15.30;;
73823;SDS011;62154;54.914;73.444;2022-10-16T14:43:42;26.02;;;17.20;;
73823;SDS011;62154;54.914;73.444;2022-10-16T14:46:16;31.80;;;18.45;;
73823;SDS011;62154;54.914;73.444;2022-10-16T14:48:54;31.17;;;17.15;;
73823;SDS011;62154;54.914;73.444;2022-10-16T14:51:43;29.25;;;18.85;;
73823;SDS011;62154;54.914;73.444;2022-10-16T14:54:11;29.00;;;19.45;;
73823;SDS011;62154;54.914;73.444;2022-10-16T14:56:44;33.50;;;21.27;;
73823;SDS011;62154;54.914;73.444;2022-10-16T14:59:16;33.63;;;22.33;;
73823;SDS011;62154;54.914;73.444;2022-10-16T15:04:47;33.28;;;21.40;;
73823;SDS011;62154;54.914;73.444;2022-10-16T15:07:24;32.63;;;20.58;;
73823;SDS011;62154;54.914;73.444;2022-10-16T15:09:51;38.22;;;22.80;;
73823;SDS011;62154;54.914;73.444;2022-10-16T15:12:19;33.90;;;20.40;;
73823;SDS011;62154;54.914;73.444;2022-10-16T15:14:45;34.90;;;21.42;;
73823;SDS011;62154;54.914;73.444;2022-10-16T15:17:12;36.08;;;21.10;;
73823;SDS011;62154;54.914;73.444;2022-10-16T15:19:39;31.42;;;21.42;;
73823;SDS011;62154;54.914;73.444;2022-10-16T15:22:16;32.83;;;19.92;;
73823;SDS011;62154;54.914;73.444;2022-10-16T15:24:43;33.58;;;20.42;;
73823;SDS011;62154;54.914;73.444;2022-10-16T15:27:10;28.08;;;19.90;;
73823;SDS011;62154;54.914;73.444;2022-10-16T15:29:37;30.50;;;19.60;;
73823;SDS011;62154;54.914;73.444;2022-10-16T15:32:10;33.10;;;20.00;;
73823;SDS011;62154;54.914;73.444;2022-10-16T15:34:37;33.35;;;19.65;;
73823;SDS011;62154;54.914;73.444;2022-10-16T15:37:04;31.83;;;20.83;;
73823;SDS011;62154;54.914;73.444;2022-10-16T15:39:31;30.70;;;20.80;;
73823;SDS011;62154;54.914;73.444;2022-10-16T15:41:58;34.58;;;21.67;;
73823;SDS011;62154;54.914;73.444;2022-10-16T15:44:34;37.88;;;23.35;;
73823;SDS011;62154;54.914;73.444;2022-10-16T15:47:01;36.22;;;22.83;;
73823;SDS011;62154;54.914;73.444;2022-10-16T15:49:28;39.50;;;22.75;;
73823;SDS011;62154;54.914;73.444;2022-10-16T15:51:55;35.63;;;23.92;;
73823;SDS011;62154;54.914;73.444;2022-10-16T15:54:22;44.17;;;28.58;;
73823;SDS011;62154;54.914;73.444;2022-10-16T15:56:49;38.00;;;24.33;;
73823;SDS011;62154;54.914;73.444;2022-10-16T15:59:16;42.72;;;30.85;;
73823;SDS011;62154;54.914;73.444;2022-10-16T16:01:48;38.38;;;24.85;;
73823;SDS011;62154;54.914;73.444;2022-10-16T16:04:14;30.42;;;20.80;;
73823;SDS011;62154;54.914;73.444;2022-10-16T16:06:42;38.05;;;24.48;;
73823;SDS011;62154;54.914;73.444;2022-10-16T16:09:11;31.45;;;22.58;;
73823;SDS011;62154;54.914;73.444;2022-10-16T16:11:39;33.42;;;24.42;;
73823;SDS011;62154;54.914;73.444;2022-10-16T16:14:06;27.63;;;19.70;;
73823;SDS011;62154;54.914;73.444;2022-10-16T16:16:34;26.73;;;17.23;;
73823;SDS011;62154;54.914;73.444;2022-10-16T16:19:08;25.50;;;14.85;;
73823;SDS011;62154;54.914;73.444;2022-10-16T16:21:41;21.65;;;15.40;;
73823;SDS011;62154;54.914;73.444;2022-10-16T16:24:08;20.58;;;12.40;;
73823;SDS011;62154;54.914;73.444;2022-10-16T16:26:45;23.55;;;14.15;;
73823;SDS011;62154;54.914;73.444;2022-10-16T16:29:12;74.85;;;29.65;;
73823;SDS011;62154;54.914;73.444;2022-10-16T16:31:41;19.73;;;11.80;;
73823;SDS011;62154;54.914;73.444;2022-10-16T16:34:08;27.58;;;12.13;;
73823;SDS011;62154;54.914;73.444;2022-10-16T16:36:36;34.38;;;18.98;;
73823;SDS011;62154;54.914;73.444;2022-10-16T16:39:03;36.70;;;21.77;;
73823;SDS011;62154;54.914;73.444;2022-10-16T16:41:30;42.63;;;21.27;;
73823;SDS011;62154;54.914;73.444;2022-10-16T16:44:04;33.60;;;19.90;;
73823;SDS011;62154;54.914;73.444;2022-10-16T16:46:35;40.22;;;23.63;;
73823;SDS011;62154;54.914;73.444;2022-10-16T16:49:02;29.10;;;17.08;;
73823;SDS011;62154;54.914;73.444;2022-10-16T16:51:29;27.60;;;16.00;;
73823;SDS011;62154;54.914;73.444;2022-10-16T16:53:56;157.20;;;69.90;;
73823;SDS011;62154;54.914;73.444;2022-10-16T16:56:24;48.35;;;26.45;;
73823;SDS011;62154;54.914;73.444;2022-10-16T16:58:53;36.38;;;20.33;;
73823;SDS011;62154;54.914;73.444;2022-10-16T17:01:21;48.72;;;25.10;;
73823;SDS011;62154;54.914;73.444;2022-10-16T17:03:50;54.97;;;29.42;;
73823;SDS011;62154;54.914;73.444;2022-10-16T17:06:19;137.48;;;62.65;;
73823;SDS011;62154;54.914;73.444;2022-10-16T17:08:48;185.13;;;78.45;;